createdAt,value
2019-02-17T00:00:49.663Z,42.20
2019-02-17T00:03:18.318Z,42.30
2019-02-17T00:05:47.045Z,42.30
2019-02-17T00:08:15.723Z,42.30
2019-02-17T00:10:44.527Z,42.40
2019-02-17T00:13:13.195Z,42.30
2019-02-17T00:15:41.912Z,42.50
2019-02-17T00:18:10.590Z,42.60
2019-02-17T00:20:39.300Z,42.70
2019-02-17T00:23:08.005Z,42.60
2019-02-17T00:25:36.681Z,42.40
2019-02-17T00:28:05.397Z,42.60
2019-02-17T00:30:34.116Z,42.80
2019-02-17T00:33:02.862Z,42.70
2019-02-17T00:35:32.135Z,43.00
2019-02-17T00:38:00.842Z,42.90
2019-02-17T00:40:29.558Z,43.40
2019-02-17T00:42:58.382Z,43.30
2019-02-17T00:45:27.092Z,43.20
2019-02-17T00:47:56.813Z,43.20
2019-02-17T00:50:25.480Z,43.60
2019-02-17T00:52:54.395Z,43.20
2019-02-17T00:55:23.138Z,43.60
2019-02-17T00:57:51.850Z,43.30
2019-02-17T01:00:20.582Z,43.50
2019-02-17T01:02:49.256Z,43.60
2019-02-17T01:05:17.960Z,43.60
2019-02-17T01:07:46.668Z,43.50
2019-02-17T01:10:15.347Z,43.70
2019-02-17T01:12:44.070Z,43.60
2019-02-17T01:15:12.946Z,43.70
2019-02-17T01:17:41.638Z,43.70
2019-02-17T01:20:10.949Z,43.70
2019-02-17T01:22:39.602Z,43.70
2019-02-17T01:25:10.016Z,43.90
2019-02-17T01:27:38.700Z,43.80
2019-02-17T01:30:10.079Z,43.60
2019-02-17T01:32:38.755Z,43.70
2019-02-17T01:35:07.522Z,43.70
2019-02-17T01:37:36.464Z,43.70
2019-02-17T01:40:08.342Z,43.80
2019-02-17T01:42:37.162Z,43.90
2019-02-17T01:45:08.445Z,43.80
2019-02-17T01:47:37.126Z,43.80
2019-02-17T01:50:08.252Z,44.20
2019-02-17T01:52:36.927Z,44.20
2019-02-17T01:55:07.344Z,44.00
2019-02-17T01:57:36.183Z,44.20
2019-02-17T02:00:07.827Z,44.10
2019-02-17T02:02:36.512Z,44.30
2019-02-17T02:05:06.196Z,44.10
2019-02-17T02:07:34.913Z,44.30
2019-02-17T02:10:04.610Z,44.10
2019-02-17T02:12:33.374Z,44.10
2019-02-17T02:15:02.078Z,44.50
2019-02-17T02:17:30.744Z,44.20
2019-02-17T02:19:59.439Z,44.20
2019-02-17T02:22:28.162Z,44.20
2019-02-17T02:24:56.829Z,44.40
2019-02-17T02:27:25.596Z,44.30
2019-02-17T02:29:54.496Z,44.40
2019-02-17T02:32:23.183Z,44.30
2019-02-17T02:34:51.859Z,44.30
2019-02-17T02:37:20.547Z,44.50
2019-02-17T02:39:49.241Z,44.50
2019-02-17T02:42:17.970Z,44.60
2019-02-17T02:44:48.629Z,44.60
2019-02-17T02:47:17.063Z,44.70
2019-02-17T02:49:45.760Z,44.50
2019-02-17T02:52:14.435Z,44.50
2019-02-17T02:54:43.127Z,44.70
2019-02-17T02:57:11.919Z,44.60
2019-02-17T02:59:50.104Z,44.50
2019-02-17T03:02:11.132Z,44.60
2019-02-17T03:04:39.830Z,44.50
2019-02-17T03:07:08.904Z,44.60
2019-02-17T03:09:37.590Z,44.70
2019-02-17T03:12:06.307Z,44.80
2019-02-17T03:14:35.027Z,44.80
2019-02-17T03:17:03.719Z,44.80
2019-02-17T03:19:32.427Z,44.90
2019-02-17T03:22:01.090Z,45.10
2019-02-17T03:24:29.808Z,44.80
2019-02-17T03:26:58.616Z,45.00
2019-02-17T03:29:27.320Z,45.00
2019-02-17T03:31:56.209Z,45.00
2019-02-17T03:34:24.946Z,45.00
2019-02-17T03:36:53.703Z,45.00
2019-02-17T03:39:22.459Z,45.00
2019-02-17T03:41:51.154Z,44.90
2019-02-17T03:44:19.814Z,45.20
2019-02-17T03:46:48.652Z,45.10
2019-02-17T03:49:17.323Z,45.30
2019-02-17T03:51:46.200Z,45.20
2019-02-17T03:54:14.937Z,44.60
2019-02-17T03:56:43.657Z,45.10
2019-02-17T03:59:12.364Z,44.80
2019-02-17T04:01:41.090Z,45.40
2019-02-17T04:04:09.842Z,45.30
2019-02-17T04:06:38.561Z,45.30
2019-02-17T04:09:07.725Z,45.20
2019-02-17T04:11:36.425Z,45.40
2019-02-17T04:14:05.126Z,45.50
2019-02-17T04:16:33.879Z,45.50
2019-02-17T04:19:02.601Z,45.40
2019-02-17T04:21:33.372Z,45.60
2019-02-17T04:24:01.735Z,45.60
2019-02-17T04:26:30.398Z,45.80
2019-02-17T04:28:59.092Z,45.80
2019-02-17T04:31:27.783Z,45.90
2019-02-17T04:33:56.567Z,45.60
2019-02-17T04:36:25.278Z,45.50
2019-02-17T04:38:54.045Z,46.30
2019-02-17T04:41:22.760Z,45.70
2019-02-17T04:43:51.431Z,45.70
2019-02-17T04:46:20.143Z,46.30
2019-02-17T04:48:48.825Z,45.70
2019-02-17T04:51:17.490Z,45.80
2019-02-17T04:53:46.239Z,45.90
2019-02-17T04:56:14.910Z,46.00
2019-02-17T04:58:43.612Z,46.00
2019-02-17T05:01:12.362Z,45.80
2019-02-17T05:03:41.079Z,46.00
2019-02-17T05:06:09.743Z,45.80
2019-02-17T05:08:38.467Z,46.10
2019-02-17T05:11:07.279Z,45.80
2019-02-17T05:13:36.042Z,45.90
2019-02-17T05:16:04.740Z,45.90
2019-02-17T05:18:33.601Z,45.70
2019-02-17T05:21:02.297Z,45.70
2019-02-17T05:23:30.974Z,45.70
2019-02-17T05:25:59.699Z,46.00
2019-02-17T05:28:28.353Z,46.10
2019-02-17T05:30:57.114Z,46.20
2019-02-17T05:33:26.014Z,46.00
2019-02-17T05:35:54.680Z,45.90
2019-02-17T05:38:23.362Z,46.30
2019-02-17T05:40:52.112Z,45.90
2019-02-17T05:43:20.810Z,46.30
2019-02-17T05:45:49.610Z,46.20
2019-02-17T05:48:18.340Z,46.30
2019-02-17T05:50:47.005Z,46.30
2019-02-17T05:53:15.693Z,46.10
2019-02-17T05:55:44.388Z,45.90
2019-02-17T05:58:13.070Z,46.10
2019-02-17T06:00:41.767Z,46.60
2019-02-17T06:03:10.467Z,46.30
2019-02-17T06:05:39.205Z,46.30
2019-02-17T06:08:08.198Z,46.30
2019-02-17T06:10:36.874Z,46.60
2019-02-17T06:13:05.531Z,46.40
2019-02-17T06:15:34.239Z,46.50
2019-02-17T06:18:02.980Z,46.60
2019-02-17T06:20:31.694Z,46.50
2019-02-17T06:23:00.403Z,46.50
2019-02-17T06:25:29.088Z,46.80
2019-02-17T06:27:57.835Z,46.90
2019-02-17T06:30:28.005Z,47.30
2019-02-17T06:32:56.683Z,46.80
2019-02-17T06:35:25.434Z,46.80
2019-02-17T06:37:54.086Z,46.90
2019-02-17T06:40:22.807Z,47.00
2019-02-17T06:42:51.516Z,47.10
2019-02-17T06:45:20.198Z,46.80
2019-02-17T06:47:48.896Z,47.10
2019-02-17T06:50:17.571Z,46.90
2019-02-17T06:52:46.231Z,47.20
2019-02-17T06:55:25.483Z,47.10
2019-02-17T06:57:56.398Z,47.10
2019-02-17T07:00:29.450Z,47.10
2019-02-17T07:02:58.234Z,47.40
2019-02-17T07:05:31.295Z,47.30
2019-02-17T07:07:59.983Z,47.60
2019-02-17T07:10:28.662Z,47.40
2019-02-17T07:12:57.376Z,47.50
2019-02-17T07:15:26.056Z,47.60
2019-02-17T07:17:54.771Z,47.80
2019-02-17T07:20:23.452Z,47.90
2019-02-17T07:22:52.211Z,47.80
2019-02-17T07:25:29.717Z,47.80
2019-02-17T07:27:51.366Z,48.10
2019-02-17T07:30:20.035Z,48.30
2019-02-17T07:32:48.811Z,48.40
2019-02-17T07:35:17.475Z,48.60
2019-02-17T07:37:46.159Z,48.60
2019-02-17T07:40:14.869Z,48.60
2019-02-17T07:42:43.538Z,48.80
2019-02-17T07:45:12.520Z,48.50
2019-02-17T07:47:41.191Z,48.80
2019-02-17T07:50:10.918Z,48.90
2019-02-17T07:52:39.601Z,48.70
2019-02-17T07:55:10.290Z,48.80
2019-02-17T07:57:38.987Z,48.80
2019-02-17T08:00:14.006Z,48.70
2019-02-17T08:02:42.721Z,48.70
2019-02-17T08:05:11.451Z,49.00
2019-02-17T08:07:40.127Z,48.90
2019-02-17T08:10:10.304Z,48.90
2019-02-17T08:12:39.020Z,49.00
2019-02-17T08:15:09.998Z,49.00
2019-02-17T08:17:38.746Z,48.90
2019-02-17T08:20:09.820Z,48.90
2019-02-17T08:22:38.506Z,48.90
2019-02-17T08:25:08.594Z,48.60
2019-02-17T08:27:37.295Z,47.80
2019-02-17T08:30:13.857Z,47.80
2019-02-17T08:32:44.014Z,48.20
2019-02-17T08:35:13.039Z,48.00
2019-02-17T08:37:41.733Z,48.00
2019-02-17T08:40:11.011Z,47.80
2019-02-17T08:42:39.696Z,46.40
2019-02-17T08:45:11.365Z,46.10
2019-02-17T08:47:40.193Z,45.90
2019-02-17T08:50:11.283Z,45.70
2019-02-17T08:52:39.970Z,45.60
2019-02-17T08:55:10.293Z,45.50
2019-02-17T08:57:38.955Z,45.10
2019-02-17T09:00:13.265Z,45.00
2019-02-17T09:02:42.296Z,44.90
2019-02-17T09:05:10.981Z,44.90
2019-02-17T09:07:39.795Z,44.80
2019-02-17T09:10:11.271Z,44.70
2019-02-17T09:12:40.940Z,44.50
2019-02-17T09:15:12.050Z,44.00
2019-02-17T09:17:40.744Z,44.00
2019-02-17T09:20:11.210Z,44.00
2019-02-17T09:22:39.976Z,43.60
2019-02-17T09:25:10.981Z,43.60
2019-02-17T09:27:39.686Z,43.50
2019-02-17T09:30:14.269Z,43.40
2019-02-17T09:32:42.926Z,43.20
2019-02-17T09:35:11.665Z,43.00
2019-02-17T09:37:40.371Z,43.10
2019-02-17T09:40:11.510Z,42.70
2019-02-17T09:42:40.267Z,42.50
2019-02-17T09:45:14.061Z,42.40
2019-02-17T09:47:42.766Z,42.20
2019-02-17T09:50:12.949Z,42.10
2019-02-17T09:52:41.722Z,42.30
2019-02-17T09:55:11.272Z,42.00
2019-02-17T09:57:39.998Z,41.60
2019-02-17T10:00:14.248Z,41.60
2019-02-17T10:02:43.046Z,41.30
2019-02-17T10:05:12.794Z,41.80
2019-02-17T10:07:41.505Z,40.90
2019-02-17T10:10:18.308Z,40.90
2019-02-17T10:12:47.066Z,40.90
2019-02-17T10:15:15.778Z,40.90
2019-02-17T10:17:44.470Z,41.10
2019-02-17T10:20:14.780Z,41.10
2019-02-17T10:22:43.466Z,41.50
2019-02-17T10:25:12.378Z,40.50
2019-02-17T10:27:41.105Z,40.50
2019-02-17T10:30:12.704Z,40.20
2019-02-17T10:32:41.431Z,40.20
2019-02-17T10:35:10.132Z,40.10
2019-02-17T10:37:38.809Z,40.10
2019-02-17T10:40:13.421Z,39.80
2019-02-17T10:42:42.095Z,39.70
2019-02-17T10:45:11.695Z,39.20
2019-02-17T10:47:40.402Z,39.10
2019-02-17T10:50:13.798Z,38.50
2019-02-17T10:52:42.484Z,38.40
2019-02-17T10:55:12.780Z,38.20
2019-02-17T10:57:41.504Z,37.60
2019-02-17T11:00:15.704Z,37.60
2019-02-17T11:02:46.974Z,37.80
2019-02-17T11:05:15.372Z,37.60
2019-02-17T11:07:44.244Z,37.50
2019-02-17T11:10:13.907Z,37.40
2019-02-17T11:12:42.647Z,36.90
2019-02-17T11:15:21.774Z,36.60
2019-02-17T11:17:50.471Z,36.20
2019-02-17T11:20:19.166Z,36.30
2019-02-17T11:22:47.863Z,36.00
2019-02-17T11:25:16.576Z,35.90
2019-02-17T11:27:45.276Z,35.60
2019-02-17T11:30:21.277Z,35.40
2019-02-17T11:32:57.535Z,35.10
2019-02-17T11:35:20.422Z,34.90
2019-02-17T11:37:49.137Z,34.80
2019-02-17T11:40:18.168Z,34.80
2019-02-17T11:42:46.860Z,33.80
2019-02-17T11:45:17.606Z,33.90
2019-02-17T11:47:46.528Z,33.80
2019-02-17T11:50:15.938Z,33.80
2019-02-17T11:52:45.187Z,34.10
2019-02-17T11:55:15.488Z,34.20
2019-02-17T11:57:44.286Z,33.90
2019-02-17T12:00:15.925Z,33.70
2019-02-17T12:02:44.612Z,33.70
2019-02-17T12:05:13.591Z,33.20
2019-02-17T12:07:42.510Z,33.00
2019-02-17T12:10:11.801Z,32.20
2019-02-17T12:12:40.822Z,32.20
2019-02-17T12:15:13.739Z,32.20
2019-02-17T12:17:42.476Z,32.00
2019-02-17T12:20:18.308Z,31.90
2019-02-17T12:22:48.632Z,31.50
2019-02-17T12:25:18.392Z,31.30
2019-02-17T12:27:51.374Z,31.30
2019-02-17T12:30:22.291Z,31.00
2019-02-17T12:32:50.982Z,30.90
2019-02-17T12:35:19.800Z,31.00
2019-02-17T12:37:48.528Z,30.70
2019-02-17T12:40:17.245Z,30.80
2019-02-17T12:42:45.949Z,30.30
2019-02-17T12:45:18.477Z,30.00
2019-02-17T12:47:57.000Z,30.00
2019-02-17T12:50:17.761Z,30.00
2019-02-17T12:52:47.749Z,30.20
2019-02-17T12:55:16.665Z,30.00
2019-02-17T12:57:45.398Z,30.00
2019-02-17T13:00:16.471Z,29.90
2019-02-17T13:02:45.152Z,29.60
2019-02-17T13:05:14.065Z,29.50
2019-02-17T13:07:43.066Z,29.50
2019-02-17T13:10:12.708Z,29.10
2019-02-17T13:12:41.410Z,29.30
2019-02-17T13:15:12.227Z,29.50
2019-02-17T13:17:41.017Z,29.10
2019-02-17T13:20:12.297Z,29.10
2019-02-17T13:22:41.284Z,29.10
2019-02-17T13:25:12.555Z,29.10
2019-02-17T13:27:41.263Z,29.00
2019-02-17T13:30:18.946Z,29.00
2019-02-17T13:32:47.634Z,28.90
2019-02-17T13:35:16.331Z,28.90
2019-02-17T13:37:45.026Z,29.00
2019-02-17T13:40:14.315Z,28.80
2019-02-17T13:42:42.992Z,28.90
2019-02-17T13:45:16.793Z,28.90
2019-02-17T13:47:45.506Z,28.80
2019-02-17T13:50:15.664Z,28.80
2019-02-17T13:52:44.374Z,28.80
2019-02-17T13:55:13.090Z,28.90
2019-02-17T13:57:41.868Z,28.80
2019-02-17T14:00:18.781Z,28.70
2019-02-17T14:02:47.444Z,28.80
2019-02-17T14:05:17.196Z,28.90
2019-02-17T14:07:46.081Z,28.70
2019-02-17T14:10:15.300Z,28.80
2019-02-17T14:12:44.017Z,28.90
2019-02-17T14:15:15.059Z,28.90
2019-02-17T14:17:43.762Z,28.70
2019-02-17T14:20:12.818Z,29.00
2019-02-17T14:22:41.509Z,29.00
2019-02-17T14:25:11.494Z,28.70
2019-02-17T14:27:40.667Z,28.80
2019-02-17T14:30:16.741Z,28.60
2019-02-17T14:32:45.430Z,28.60
2019-02-17T14:35:14.288Z,28.40
2019-02-17T14:37:42.978Z,28.40
2019-02-17T14:40:12.848Z,28.40
2019-02-17T14:42:41.552Z,28.20
2019-02-17T14:45:15.408Z,28.20
2019-02-17T14:47:44.069Z,28.20
2019-02-17T14:50:13.540Z,27.80
2019-02-17T14:52:43.722Z,27.40
2019-02-17T14:55:14.361Z,27.20
2019-02-17T14:57:43.069Z,27.10
2019-02-17T15:00:17.655Z,27.30
2019-02-17T15:02:46.385Z,27.20
2019-02-17T15:05:15.092Z,27.20
2019-02-17T15:07:43.793Z,27.30
2019-02-17T15:10:14.009Z,27.10
2019-02-17T15:12:42.721Z,27.10
2019-02-17T15:15:16.149Z,27.20
2019-02-17T15:17:44.875Z,27.10
2019-02-17T15:20:21.721Z,27.30
2019-02-17T15:22:50.455Z,27.20
2019-02-17T15:25:19.108Z,27.20
2019-02-17T15:27:48.029Z,27.20
2019-02-17T15:30:18.112Z,27.10
2019-02-17T15:32:46.961Z,27.20
2019-02-17T15:35:15.972Z,27.20
2019-02-17T15:37:44.700Z,27.20
2019-02-17T15:40:14.585Z,27.20
2019-02-17T15:42:43.539Z,27.00
2019-02-17T15:45:15.830Z,26.90
2019-02-17T15:47:44.540Z,27.00
2019-02-17T15:50:14.203Z,27.00
2019-02-17T15:52:42.921Z,27.00
2019-02-17T15:55:13.900Z,27.10
2019-02-17T15:57:42.778Z,26.90
2019-02-17T16:00:15.546Z,27.10
2019-02-17T16:02:44.337Z,27.00
2019-02-17T16:05:13.246Z,27.00
2019-02-17T16:07:41.936Z,27.30
2019-02-17T16:10:12.894Z,27.30
2019-02-17T16:12:41.622Z,27.40
2019-02-17T16:15:13.336Z,27.40
2019-02-17T16:17:42.201Z,27.50
2019-02-17T16:20:12.761Z,27.60
2019-02-17T16:22:41.453Z,27.80
2019-02-17T16:25:11.172Z,27.60
2019-02-17T16:27:39.890Z,27.70
2019-02-17T16:30:14.152Z,27.60
2019-02-17T16:32:42.873Z,27.70
2019-02-17T16:35:11.546Z,27.80
2019-02-17T16:37:40.310Z,27.80
2019-02-17T16:40:11.474Z,28.00
2019-02-17T16:42:40.170Z,27.90
2019-02-17T16:45:14.322Z,27.90
2019-02-17T16:47:43.737Z,28.00
2019-02-17T16:50:18.602Z,28.30
2019-02-17T16:52:47.279Z,27.70
2019-02-17T16:55:16.011Z,27.80
2019-02-17T16:57:44.677Z,27.90
2019-02-17T17:00:23.177Z,27.90
2019-02-17T17:02:56.458Z,28.10
2019-02-17T17:05:25.879Z,28.00
2019-02-17T17:07:54.576Z,28.20
2019-02-17T17:10:23.254Z,28.30
2019-02-17T17:12:51.954Z,28.50
2019-02-17T17:15:20.732Z,28.50
2019-02-17T17:17:49.464Z,28.40
2019-02-17T17:20:19.727Z,28.30
2019-02-17T17:22:48.385Z,28.40
2019-02-17T17:25:17.407Z,28.70
2019-02-17T17:27:46.100Z,28.50
2019-02-17T17:30:16.799Z,28.60
2019-02-17T17:32:45.484Z,28.50
2019-02-17T17:35:14.497Z,28.80
2019-02-17T17:37:43.167Z,28.60
2019-02-17T17:40:16.048Z,28.60
2019-02-17T17:42:44.956Z,28.60
2019-02-17T17:45:19.082Z,28.70
2019-02-17T17:47:48.073Z,28.40
2019-02-17T17:50:17.216Z,28.60
2019-02-17T17:52:45.931Z,28.60
2019-02-17T17:55:14.615Z,28.70
2019-02-17T17:57:43.354Z,28.90
2019-02-17T18:00:26.064Z,28.90
2019-02-17T18:02:54.842Z,29.00
2019-02-17T18:05:23.574Z,29.00
2019-02-17T18:07:52.297Z,29.20
2019-02-17T18:10:20.978Z,29.20
2019-02-17T18:12:49.661Z,29.10
2019-02-17T18:15:19.664Z,29.10
2019-02-17T18:17:55.144Z,29.00
2019-02-17T18:20:23.944Z,29.00
2019-02-17T18:22:52.662Z,29.10
2019-02-17T18:25:21.343Z,29.20
2019-02-17T18:27:50.073Z,29.30
2019-02-17T18:30:19.914Z,29.30
2019-02-17T18:32:48.692Z,29.30
2019-02-17T18:35:20.153Z,29.40
2019-02-17T18:37:47.853Z,29.30
2019-02-17T18:40:18.406Z,29.40
2019-02-17T18:42:47.070Z,29.40
2019-02-17T18:45:18.700Z,29.30
2019-02-17T18:47:47.374Z,29.60
2019-02-17T18:50:17.377Z,29.50
2019-02-17T18:52:46.045Z,29.60
2019-02-17T18:55:15.287Z,30.00
2019-02-17T18:57:50.181Z,29.80
2019-02-17T19:00:19.517Z,29.90
2019-02-17T19:02:48.238Z,30.10
2019-02-17T19:05:16.943Z,30.00
2019-02-17T19:07:45.642Z,30.00
2019-02-17T19:10:15.127Z,30.00
2019-02-17T19:12:44.009Z,30.20
2019-02-17T19:15:21.038Z,30.30
2019-02-17T19:17:49.959Z,30.20
2019-02-17T19:20:33.691Z,30.20
2019-02-17T19:23:02.434Z,30.40
2019-02-17T19:25:31.312Z,30.30
2019-02-17T19:28:00.127Z,30.40
2019-02-17T19:30:30.937Z,30.30
2019-02-17T19:32:59.649Z,30.50
2019-02-17T19:35:28.345Z,30.60
2019-02-17T19:37:57.032Z,30.50
2019-02-17T19:40:25.716Z,30.70
2019-02-17T19:42:54.637Z,30.80
2019-02-17T19:45:23.347Z,30.80
2019-02-17T19:47:52.068Z,30.80
2019-02-17T19:50:20.758Z,31.00
2019-02-17T19:52:49.464Z,30.70
2019-02-17T19:55:18.123Z,31.10
2019-02-17T19:57:47.065Z,31.00
2019-02-17T20:00:17.280Z,31.20
2019-02-17T20:03:02.687Z,31.10
2019-02-17T20:05:35.626Z,31.00
2019-02-17T20:08:04.695Z,31.20
2019-02-17T20:10:33.408Z,31.20
2019-02-17T20:13:02.074Z,31.20
2019-02-17T20:15:32.364Z,31.10
2019-02-17T20:18:01.044Z,31.00
2019-02-17T20:20:35.641Z,30.80
2019-02-17T20:23:04.365Z,31.00
2019-02-17T20:25:33.060Z,31.00
2019-02-17T20:28:01.846Z,30.80
2019-02-17T20:30:30.582Z,30.70
2019-02-17T20:32:59.307Z,30.80
2019-02-17T20:35:28.031Z,30.50
2019-02-17T20:37:56.730Z,30.70
2019-02-17T20:40:25.418Z,30.60
2019-02-17T20:42:54.242Z,30.50
2019-02-17T20:45:23.021Z,30.40
2019-02-17T20:47:51.699Z,30.70
2019-02-17T20:50:20.422Z,30.80
2019-02-17T20:52:49.111Z,30.70
2019-02-17T20:55:17.980Z,30.40
2019-02-17T20:57:46.697Z,30.60
2019-02-17T21:00:22.694Z,30.40
2019-02-17T21:02:53.356Z,30.30
2019-02-17T21:05:22.099Z,30.20
2019-02-17T21:07:50.855Z,30.10
2019-02-17T21:10:19.655Z,30.40
2019-02-17T21:12:48.393Z,30.10
2019-02-17T21:15:19.128Z,30.20
2019-02-17T21:17:47.790Z,30.00
2019-02-17T21:20:17.808Z,30.10
2019-02-17T21:22:46.491Z,30.20
2019-02-17T21:25:15.526Z,30.00
2019-02-17T21:27:44.440Z,30.00
2019-02-17T21:30:18.016Z,30.00
2019-02-17T21:32:47.284Z,29.90
2019-02-17T21:35:16.893Z,30.00
2019-02-17T21:37:45.593Z,30.00
2019-02-17T21:40:14.999Z,30.50
2019-02-17T21:42:43.685Z,30.00
2019-02-17T21:45:14.666Z,29.80
2019-02-17T21:47:43.448Z,30.10
2019-02-17T21:50:13.278Z,30.00
2019-02-17T21:52:42.407Z,30.00
2019-02-17T21:55:12.750Z,30.00
2019-02-17T21:57:41.532Z,30.00
2019-02-17T22:00:16.985Z,30.00
2019-02-17T22:02:45.654Z,29.90
2019-02-17T22:05:14.355Z,29.90
2019-02-17T22:07:43.034Z,29.80
2019-02-17T22:10:18.953Z,29.80
2019-02-17T22:12:47.712Z,29.80
2019-02-17T22:15:18.060Z,29.90
2019-02-17T22:17:46.765Z,29.90
2019-02-17T22:20:15.474Z,29.80
2019-02-17T22:22:44.283Z,29.80
2019-02-17T22:25:15.057Z,29.90
2019-02-17T22:27:43.724Z,29.90
2019-02-17T22:30:16.113Z,30.00
2019-02-17T22:32:44.811Z,30.10
2019-02-17T22:35:13.519Z,30.10
2019-02-17T22:37:42.304Z,30.00
2019-02-17T22:40:12.722Z,30.00
2019-02-17T22:42:41.481Z,30.10
2019-02-17T22:45:11.675Z,30.10
2019-02-17T22:47:40.381Z,30.20
2019-02-17T22:50:10.851Z,30.20
2019-02-17T22:52:39.555Z,30.20
2019-02-17T22:55:10.891Z,30.30
2019-02-17T22:57:39.584Z,30.30
2019-02-17T23:00:49.611Z,30.30
2019-02-17T23:03:18.587Z,30.50
2019-02-17T23:05:47.601Z,30.30
2019-02-17T23:08:16.474Z,30.60
2019-02-17T23:10:45.135Z,30.50
2019-02-17T23:13:13.870Z,30.60
2019-02-17T23:15:42.564Z,30.70
2019-02-17T23:18:11.375Z,30.80
2019-02-17T23:20:40.116Z,31.20
2019-02-17T23:23:08.827Z,30.60
2019-02-17T23:25:37.484Z,30.70
2019-02-17T23:28:06.196Z,30.70
2019-02-17T23:30:35.131Z,31.00
2019-02-17T23:33:03.815Z,31.00
2019-02-17T23:35:32.522Z,30.90
2019-02-17T23:38:01.198Z,30.80
2019-02-17T23:40:29.919Z,31.30
2019-02-17T23:42:58.679Z,31.20
2019-02-17T23:45:27.383Z,31.30
2019-02-17T23:47:56.094Z,31.40
2019-02-17T23:50:24.796Z,31.40
2019-02-17T23:52:54.674Z,31.30
2019-02-17T23:55:23.679Z,31.30
2019-02-17T23:57:52.499Z,31.60
